Time;durP1;ratioP1;P1;durP2;ratioP2;P2;SDS_P1;SDS_P2;PMS_P1;PMS_P2;Temp;Humidity;BMP_temperature;BMP_pressure;BME280_temperature;BME280_humidity;BME280_pressure;Samples;Min_cycle;Max_cycle;Signal;HPM_P1;HPM_P2
2021/04/25 00:00:08;;;;;;;13.60;9.33;;;7.60;1.00;;;;;;5075453;28;20453;-56
2021/04/25 00:02:33;;;;;;;9.80;6.70;;;7.50;1.00;;;;;;5076027;28;20188;-55
2021/04/25 00:04:59;;;;;;;7.47;6.27;;;7.50;1.00;;;;;;5072600;28;20438;-55
2021/04/25 00:07:25;;;;;;;11.93;7.80;;;;;;;;;;5070919;28;20183;-55
2021/04/25 00:09:50;;;;;;;10.00;7.40;;;7.40;1.00;;;;;;5070015;28;20183;-56
2021/04/25 00:12:16;;;;;;;9.20;7.63;;;7.40;1.00;;;;;;5071934;28;20495;-55
2021/04/25 00:14:42;;;;;;;10.20;8.07;;;7.30;1.00;;;;;;5071945;28;20183;-57
2021/04/25 00:17:07;;;;;;;8.87;7.00;;;7.30;1.00;;;;;;5072157;28;20281;-56
2021/04/25 00:19:33;;;;;;;12.63;8.13;;;7.30;1.00;;;;;;5071432;28;20206;-57
2021/04/25 00:21:58;;;;;;;10.27;7.97;;;7.40;1.00;;;;;;5068733;28;20259;-56
2021/04/25 00:24:24;;;;;;;16.70;8.40;;;7.40;1.00;;;;;;5071212;28;20317;-55
2021/04/25 00:26:49;;;;;;;9.67;8.57;;;7.40;1.00;;;;;;5070489;28;20196;-55
2021/04/25 00:29:15;;;;;;;19.50;9.60;;;7.30;1.00;;;;;;5071507;28;20235;-56
2021/04/25 00:31:41;;;;;;;11.00;9.47;;;7.20;1.00;;;;;;5072138;28;20180;-58
2021/04/25 00:34:07;;;;;;;12.83;10.53;;;7.20;1.00;;;;;;5071541;28;20457;-55
2021/04/25 00:36:33;;;;;;;11.30;9.90;;;7.10;1.00;;;;;;5072078;28;20243;-58
2021/04/25 00:38:58;;;;;;;14.73;10.30;;;7.10;1.00;;;;;;5085005;28;20179;-54
2021/04/25 00:41:24;;;;;;;14.00;9.40;;;7.10;1.00;;;;;;5083856;28;20447;-56
2021/04/25 00:43:49;;;;;;;11.50;8.33;;;7.00;1.00;;;;;;5082896;28;20186;-57
2021/04/25 00:46:15;;;;;;;12.20;9.03;;;6.90;1.00;;;;;;5072718;28;20254;-56
2021/04/25 00:48:41;;;;;;;12.93;9.70;;;6.90;1.00;;;;;;5086287;28;20182;-54
2021/04/25 00:51:12;;;;;;;14.03;9.20;;;7.00;1.00;;;;;;5077336;28;20263;-55
2021/04/25 00:53:38;;;;;;;12.50;8.83;;;7.10;1.00;;;;;;5069663;28;20714;-56
2021/04/25 00:56:04;;;;;;;10.00;8.13;;;6.80;1.00;;;;;;5071092;28;20441;-55
2021/04/25 00:58:29;;;;;;;13.93;8.77;;;6.80;1.00;;;;;;5076958;28;20524;-54
2021/04/25 01:00:55;;;;;;;14.53;8.40;;;6.60;1.00;;;;;;5070646;28;20192;-55
2021/04/25 01:03:23;;;;;;;11.10;8.00;;;6.60;1.00;;;;;;5070710;28;20202;-55
2021/04/25 01:05:50;;;;;;;9.93;8.17;;;6.60;1.00;;;;;;5072098;28;20541;-54
2021/04/25 01:08:15;;;;;;;10.73;7.17;;;9.60;1.00;;;;;;5072398;28;20548;-55
2021/04/25 01:10:41;;;;;;;9.50;8.50;;;;;;;;;;5070929;28;21009;-57
2021/04/25 01:13:07;;;;;;;10.20;7.27;;;6.70;1.00;;;;;;5070811;28;20187;-55
2021/04/25 01:15:33;;;;;;;9.63;7.20;;;6.70;1.00;;;;;;5069976;28;20777;-54
2021/04/25 01:17:59;;;;;;;12.37;7.10;;;6.60;1.00;;;;;;5068547;28;20211;-56
2021/04/25 01:20:25;;;;;;;8.90;7.47;;;6.60;1.00;;;;;;5072246;28;20668;-55
2021/04/25 01:22:50;;;;;;;8.70;6.90;;;6.60;1.00;;;;;;5070771;28;20191;-56
2021/04/25 01:25:20;;;;;;;8.23;7.20;;;6.50;1.00;;;;;;5070823;28;20448;-54
2021/04/25 01:27:46;;;;;;;12.87;7.27;;;6.50;1.00;;;;;;5070439;28;20198;-54
2021/04/25 01:30:16;;;;;;;9.50;7.83;;;6.40;1.00;;;;;;5071714;28;20954;-55
2021/04/25 01:32:42;;;;;;;12.40;9.07;;;5.90;1.00;;;;;;5070636;28;20914;-55
2021/04/25 01:35:15;;;;;;;13.13;10.47;;;5.70;1.00;;;;;;5073476;28;20540;-56
2021/04/25 01:37:42;;;;;;;12.03;8.43;;;5.90;1.00;;;;;;5072915;28;20472;-55
2021/04/25 01:40:12;;;;;;;12.70;8.77;;;6.00;1.00;;;;;;5070014;28;20836;-54
2021/04/25 01:42:38;;;;;;;11.23;9.10;;;;;;;;;;5070081;28;20448;-56
2021/04/25 01:45:05;;;;;;;12.57;8.87;;;6.30;1.00;;;;;;5072452;28;20831;-56
2021/04/25 01:47:31;;;;;;;11.83;8.77;;;6.50;1.00;;;;;;5070249;28;20434;-56
2021/04/25 01:49:56;;;;;;;10.30;8.07;;;6.70;1.00;;;;;;5068542;28;21576;-55
2021/04/25 01:52:22;;;;;;;12.77;8.00;;;7.00;1.00;;;;;;5069901;28;20545;-56
2021/04/25 01:54:47;;;;;;;15.93;9.23;;;7.00;1.00;;;;;;5083770;28;20648;-55
2021/04/25 01:57:13;;;;;;;11.90;8.47;;;7.00;1.00;;;;;;5090272;28;20203;-55
2021/04/25 01:59:38;;;;;;;14.80;8.57;;;7.00;1.00;;;;;;5075392;28;20179;-56
2021/04/25 02:02:04;;;;;;;15.03;9.30;;;7.00;1.00;;;;;;5082635;28;20266;-55
2021/04/25 02:04:30;;;;;;;12.10;8.30;;;7.10;1.00;;;;;;5070990;28;20183;-54
2021/04/25 02:06:55;;;;;;;17.10;8.73;;;7.00;1.00;;;;;;5069817;28;20197;-55
2021/04/25 02:09:21;;;;;;;12.97;9.33;;;7.20;1.00;;;;;;5067854;28;20187;-56
2021/04/25 02:11:46;;;;;;;14.00;8.83;;;7.50;1.00;;;;;;5070066;28;20494;-55
2021/04/25 02:14:12;;;;;;;13.33;9.10;;;7.50;1.00;;;;;;5069847;28;20232;-58
2021/04/25 02:16:37;;;;;;;11.80;9.40;;;7.50;1.00;;;;;;5070274;28;20215;-56
2021/04/25 02:19:03;;;;;;;10.17;8.77;;;7.40;1.00;;;;;;5068306;28;20175;-56
2021/04/25 02:21:29;;;;;;;11.20;8.43;;;7.40;1.00;;;;;;5070464;28;20245;-55
2021/04/25 02:23:56;;;;;;;11.80;9.20;;;7.50;1.00;;;;;;5070253;28;20427;-56
2021/04/25 02:26:22;;;;;;;14.50;9.83;;;7.50;1.00;;;;;;5068505;28;20179;-55
2021/04/25 02:28:48;;;;;;;14.43;9.23;;;7.60;1.00;;;;;;5070397;28;20611;-55
2021/04/25 02:31:14;;;;;;;11.40;8.53;;;7.70;1.00;;;;;;5068572;28;20461;-54
2021/04/25 02:33:39;;;;;;;16.17;9.53;;;7.70;1.00;;;;;;5070852;28;20186;-54
2021/04/25 02:36:06;;;;;;;12.73;9.97;;;7.70;1.00;;;;;;5073192;28;20429;-55
2021/04/25 02:38:32;;;;;;;13.13;9.37;;;7.60;1.00;;;;;;5072664;28;20175;-56
2021/04/25 02:40:58;;;;;;;10.20;8.33;;;7.60;1.00;;;;;;5067741;28;20866;-56
2021/04/25 02:43:23;;;;;;;13.27;8.60;;;7.50;1.00;;;;;;5071615;28;20536;-57
2021/04/25 02:45:49;;;;;;;11.30;8.83;;;7.50;1.00;;;;;;5070512;28;20187;-55
2021/04/25 02:48:15;;;;;;;10.80;8.50;;;7.50;1.00;;;;;;5072986;28;20228;-56
2021/04/25 02:50:42;;;;;;;9.80;8.57;;;7.60;1.00;;;;;;5070234;28;20198;-56
2021/04/25 02:53:08;;;;;;;10.10;8.03;;;7.70;1.00;;;;;;5070436;28;20582;-58
2021/04/25 02:55:35;;;;;;;15.00;8.53;;;7.70;1.00;;;;;;5070434;28;20961;-56
2021/04/25 02:58:01;;;;;;;10.20;7.47;;;7.70;1.00;;;;;;5074916;28;20465;-55
2021/04/25 03:00:29;;;;;;;12.37;8.40;;;7.70;1.00;;;;;;5069076;28;20453;-56
2021/04/25 03:02:55;;;;;;;10.50;7.73;;;7.70;1.00;;;;;;5078620;28;20280;-55
2021/04/25 03:05:21;;;;;;;8.40;7.30;;;7.60;1.00;;;;;;5071912;28;20982;-55
2021/04/25 03:07:46;;;;;;;12.37;8.10;;;7.60;1.00;;;;;;5074406;28;20456;-54
2021/04/25 03:10:14;;;;;;;9.90;6.93;;;7.60;1.00;;;;;;5074803;28;20250;-57
2021/04/25 03:12:39;;;;;;;9.83;7.50;;;7.50;1.00;;;;;;5074252;28;20253;-55
2021/04/25 03:15:07;;;;;;;8.97;7.60;;;7.60;1.00;;;;;;5073230;28;20473;-56
2021/04/25 03:17:33;;;;;;;9.33;7.37;;;7.60;1.00;;;;;;5074188;28;20313;-55
2021/04/25 03:19:59;;;;;;;11.80;8.10;;;7.70;1.00;;;;;;5072881;28;20517;-56
2021/04/25 03:22:24;;;;;;;10.07;7.70;;;7.90;1.00;;;;;;5071761;28;20179;-55
2021/04/25 03:24:50;;;;;;;8.70;7.23;;;7.90;1.00;;;;;;5070339;28;20274;-55
2021/04/25 03:27:16;;;;;;;11.03;8.03;;;7.80;1.00;;;;;;5069373;28;20230;-55
2021/04/25 03:29:41;;;;;;;14.67;7.83;;;7.80;1.00;;;;;;5075419;28;20227;-54
2021/04/25 03:32:07;;;;;;;8.87;7.37;;;7.70;1.00;;;;;;5080847;28;20188;-55
2021/04/25 03:34:33;;;;;;;11.17;8.50;;;7.70;1.00;;;;;;5071751;28;20270;-55
2021/04/25 03:36:59;;;;;;;13.13;8.30;;;7.70;1.00;;;;;;5073746;28;20683;-57
2021/04/25 03:39:24;;;;;;;12.40;8.53;;;7.70;1.00;;;;;;5076134;28;20459;-56
2021/04/25 03:41:50;;;;;;;14.43;8.40;;;7.60;1.00;;;;;;5074762;28;20454;-55
2021/04/25 03:44:16;;;;;;;9.23;7.87;;;7.60;1.00;;;;;;5072457;28;20183;-55
2021/04/25 03:46:42;;;;;;;9.67;8.30;;;7.50;1.00;;;;;;5071351;28;20253;-55
2021/04/25 03:49:08;;;;;;;13.20;9.10;;;7.20;1.00;;;;;;5066289;28;20304;-55
2021/04/25 03:51:34;;;;;;;12.20;8.83;;;7.00;1.00;;;;;;5065066;28;20441;-55
2021/04/25 03:54:00;;;;;;;11.13;9.03;;;6.80;1.00;;;;;;5067966;28;20954;-55
2021/04/25 03:56:26;;;;;;;11.97;9.70;;;6.80;1.00;;;;;;5066040;28;20684;-55
2021/04/25 03:58:51;;;;;;;11.43;8.90;;;6.80;1.00;;;;;;5070358;28;20212;-56
2021/04/25 04:01:17;;;;;;;17.40;13.37;;;7.00;1.00;;;;;;5073088;28;20172;-54
2021/04/25 04:03:43;;;;;;;10.43;8.07;;;7.10;1.00;;;;;;5073737;28;20187;-56
2021/04/25 04:06:09;;;;;;;10.83;9.00;;;7.20;1.00;;;;;;5070614;28;20798;-55
2021/04/25 04:08:34;;;;;;;10.80;8.13;;;7.10;1.00;;;;;;5071431;28;20437;-56
2021/04/25 04:11:00;;;;;;;10.80;8.73;;;7.40;1.00;;;;;;5073501;28;20193;-56
2021/04/25 04:13:25;;;;;;;10.17;8.57;;;7.40;1.00;;;;;;5074147;28;20180;-55
2021/04/25 04:15:51;;;;;;;10.30;8.30;;;7.50;1.00;;;;;;5072362;28;20184;-56
2021/04/25 04:18:16;;;;;;;10.33;8.50;;;7.50;1.00;;;;;;5074840;28;20692;-54
2021/04/25 04:20:42;;;;;;;10.33;8.60;;;7.60;1.00;;;;;;5066957;28;20183;-55
2021/04/25 04:23:08;;;;;;;10.60;8.10;;;7.70;1.00;;;;;;5065162;28;20275;-56
2021/04/25 04:25:33;;;;;;;12.60;8.73;;;7.80;1.00;;;;;;5069911;28;20211;-54
2021/04/25 04:27:58;;;;;;;10.97;8.47;;;7.70;1.00;;;;;;5068769;28;21046;-56
2021/04/25 04:30:25;;;;;;;10.67;8.47;;;7.60;1.00;;;;;;5072583;28;20195;-55
2021/04/25 04:32:50;;;;;;;15.97;9.33;;;7.70;1.00;;;;;;5072351;28;20188;-55
2021/04/25 04:35:16;;;;;;;9.70;7.93;;;7.70;1.00;;;;;;5071022;28;20457;-55
2021/04/25 04:37:42;;;;;;;11.30;8.23;;;7.70;1.00;;;;;;5069545;28;20207;-55
2021/04/25 04:40:08;;;;;;;12.40;8.07;;;7.80;1.00;;;;;;5071284;28;20181;-55
2021/04/25 04:42:34;;;;;;;10.40;7.30;;;7.90;1.00;;;;;;5074728;28;20227;-55
2021/04/25 04:44:59;;;;;;;12.73;8.77;;;7.90;1.00;;;;;;5071958;28;20477;-54
2021/04/25 04:47:25;;;;;;;12.07;8.77;;;8.00;1.00;;;;;;5069994;28;20235;-56
2021/04/25 04:49:50;;;;;;;8.90;7.87;;;8.00;1.00;;;;;;5066109;28;20197;-55
2021/04/25 04:52:16;;;;;;;11.97;8.67;;;8.20;1.00;;;;;;5066146;28;20184;-55
2021/04/25 04:54:42;;;;;;;10.90;8.63;;;8.80;1.00;;;;;;5064484;28;20194;-56
2021/04/25 04:57:08;;;;;;;9.30;7.77;;;8.30;1.00;;;;;;5069775;28;20211;-56
2021/04/25 04:59:33;;;;;;;12.63;7.23;;;8.30;1.00;;;;;;5073829;28;20538;-54
2021/04/25 05:01:59;;;;;;;11.50;9.47;;;8.30;1.00;;;;;;5071240;28;20187;-55
2021/04/25 05:04:24;;;;;;;10.40;7.60;;;8.30;1.00;;;;;;5073849;28;20249;-56
2021/04/25 05:06:50;;;;;;;9.13;7.30;;;8.30;1.00;;;;;;5071927;28;20188;-56
2021/04/25 05:09:16;;;;;;;10.60;7.90;;;8.30;1.00;;;;;;5074817;28;20618;-57
2021/04/25 05:11:41;;;;;;;8.47;7.40;;;8.30;1.00;;;;;;5072501;28;20527;-55
2021/04/25 05:14:07;;;;;;;12.10;8.10;;;8.40;1.00;;;;;;5071478;28;20183;-55
2021/04/25 05:16:32;;;;;;;11.20;8.40;;;8.40;1.00;;;;;;5070100;28;20195;-55
2021/04/25 05:18:58;;;;;;;9.80;8.10;;;8.50;1.00;;;;;;5065814;28;20210;-57
2021/04/25 05:21:23;;;;;;;9.10;6.30;;;8.50;1.00;;;;;;5066540;28;20185;-55
2021/04/25 05:23:49;;;;;;;9.50;7.40;;;8.60;1.00;;;;;;5066076;28;20709;-56
2021/04/25 05:26:15;;;;;;;10.23;7.30;;;8.60;1.00;;;;;;5063490;28;20219;-56
2021/04/25 05:28:40;;;;;;;8.67;7.20;;;8.70;1.00;;;;;;5063058;28;20219;-56
2021/04/25 05:31:06;;;;;;;11.23;7.67;;;9.70;1.00;;;;;;5066822;28;20198;-55
2021/04/25 05:33:31;;;;;;;8.70;7.20;;;8.50;1.00;;;;;;5066517;28;20201;-55
2021/04/25 05:35:57;;;;;;;11.50;7.87;;;8.40;1.00;;;;;;5065432;28;20268;-55
2021/04/25 05:38:23;;;;;;;12.07;8.00;;;8.50;1.00;;;;;;5066518;28;20303;-56
2021/04/25 05:40:49;;;;;;;10.50;7.23;;;8.60;1.00;;;;;;5063961;28;20194;-54
2021/04/25 05:43:15;;;;;;;10.33;8.20;;;8.70;1.00;;;;;;5063149;28;20948;-55
2021/04/25 05:45:41;;;;;;;10.90;8.03;;;8.70;1.00;;;;;;5070502;28;20564;-55
2021/04/25 05:48:07;;;;;;;9.47;7.80;;;8.80;1.00;;;;;;5060254;28;20219;-55
2021/04/25 05:50:33;;;;;;;11.10;8.43;;;8.90;1.00;;;;;;5067675;28;20195;-55
2021/04/25 05:52:59;;;;;;;9.27;7.43;;;9.00;1.00;;;;;;5066029;28;20452;-56
2021/04/25 05:55:25;;;;;;;9.13;7.63;;;9.20;1.00;;;;;;5062126;28;20521;-55
2021/04/25 05:57:52;;;;;;;10.93;7.37;;;9.20;1.00;;;;;;5066163;28;20296;-56
2021/04/25 06:00:21;;;;;;;8.80;6.70;;;9.20;1.00;;;;;;5064886;28;20464;-55
2021/04/25 06:02:46;;;;;;;9.77;7.40;;;9.50;1.00;;;;;;5063862;28;20446;-55
2021/04/25 06:05:12;;;;;;;9.13;7.27;;;9.50;1.00;;;;;;5064795;28;20532;-57
2021/04/25 06:07:39;;;;;;;11.57;7.47;;;;;;;;;;5062401;28;20261;-56
2021/04/25 06:10:06;;;;;;;7.93;6.60;;;9.70;1.00;;;;;;5063587;28;20463;-54
2021/04/25 06:12:32;;;;;;;10.43;7.90;;;9.50;1.00;;;;;;5066558;28;20453;-56
2021/04/25 06:14:58;;;;;;;7.43;6.63;;;9.20;1.00;;;;;;5066733;28;20444;-56
2021/04/25 06:17:24;;;;;;;8.43;6.47;;;9.30;1.00;;;;;;5063569;28;20500;-56
2021/04/25 06:19:50;;;;;;;10.23;7.20;;;9.40;1.00;;;;;;5066537;28;20190;-55
2021/04/25 06:22:15;;;;;;;9.23;7.27;;;9.50;1.00;;;;;;5065735;28;20975;-55
2021/04/25 06:24:41;;;;;;;11.17;7.13;;;9.40;1.00;;;;;;5067117;28;20190;-55
2021/04/25 06:27:08;;;;;;;9.63;7.60;;;9.50;1.00;;;;;;5068267;28;20294;-55
2021/04/25 06:29:34;;;;;;;10.00;8.43;;;9.50;1.00;;;;;;5066803;28;20493;-56
2021/04/25 06:31:59;;;;;;;9.57;7.03;;;9.50;1.00;;;;;;5069283;28;20450;-55
2021/04/25 06:34:25;;;;;;;10.30;8.17;;;9.60;1.00;;;;;;5071080;28;20443;-56
2021/04/25 06:36:50;;;;;;;12.67;8.47;;;9.90;1.00;;;;;;5072796;28;20208;-55
2021/04/25 06:39:17;;;;;;;8.03;7.20;;;10.00;1.00;;;;;;5069426;28;20191;-56
2021/04/25 06:41:42;;;;;;;10.83;7.67;;;10.20;1.00;;;;;;5068322;28;20564;-56
2021/04/25 06:44:08;;;;;;;10.50;7.93;;;10.40;1.00;;;;;;5070406;28;20444;-55
2021/04/25 06:46:35;;;;;;;11.73;7.90;;;10.60;1.00;;;;;;5070593;28;20197;-57
2021/04/25 06:49:01;;;;;;;9.73;7.87;;;10.70;1.00;;;;;;5070181;28;20462;-55
2021/04/25 06:51:27;;;;;;;9.20;7.30;;;10.90;1.00;;;;;;5066062;28;20448;-56
2021/04/25 06:53:53;;;;;;;8.63;6.97;;;10.90;1.00;;;;;;5067561;28;20543;-55
2021/04/25 06:56:18;;;;;;;10.10;7.37;;;10.80;1.00;;;;;;5070522;28;20646;-55
2021/04/25 06:58:44;;;;;;;7.37;6.67;;;10.80;1.00;;;;;;5068381;28;20183;-56
2021/04/25 07:01:11;;;;;;;7.10;6.00;;;11.00;1.00;;;;;;5067550;28;20263;-55
2021/04/25 07:03:38;;;;;;;7.70;6.90;;;11.10;1.00;;;;;;5066021;28;20449;-55
2021/04/25 07:06:04;;;;;;;12.00;7.17;;;11.40;1.00;;;;;;5070165;28;20444;-56
2021/04/25 07:08:29;;;;;;;13.30;11.97;;;11.60;1.00;;;;;;5070713;28;20524;-56
2021/04/25 07:10:55;;;;;;;10.70;7.90;;;11.80;1.00;;;;;;5069965;28;20938;-58
2021/04/25 07:13:21;;;;;;;9.70;7.30;;;11.90;1.00;;;;;;5071605;28;20198;-56
2021/04/25 07:15:48;;;;;;;8.47;7.10;;;12.00;1.00;;;;;;5070170;28;20191;-58
2021/04/25 07:18:13;;;;;;;8.43;6.93;;;12.00;1.00;;;;;;5072333;28;20503;-57
2021/04/25 07:20:39;;;;;;;10.60;6.87;;;12.20;1.00;;;;;;5071996;28;20460;-56
2021/04/25 07:23:05;;;;;;;9.30;6.70;;;12.40;1.00;;;;;;5069623;28;20556;-58
2021/04/25 07:25:31;;;;;;;7.80;6.47;;;12.30;1.00;;;;;;5072162;28;20190;-58
2021/04/25 07:27:57;;;;;;;9.07;6.83;;;12.30;1.00;;;;;;5069575;28;20230;-56
2021/04/25 07:30:23;;;;;;;7.10;5.37;;;12.40;1.00;;;;;;5070584;28;20978;-56
2021/04/25 07:32:48;;;;;;;9.10;6.33;;;12.40;1.00;;;;;;5069699;28;20194;-56
2021/04/25 07:35:14;;;;;;;8.10;5.70;;;12.30;1.00;;;;;;5069833;28;20462;-58
2021/04/25 07:37:40;;;;;;;7.53;4.90;;;;;;;;;;5069211;28;20211;-57
2021/04/25 07:40:06;;;;;;;8.10;6.00;;;12.90;1.00;;;;;;5069986;28;20186;-55
2021/04/25 07:42:32;;;;;;;7.30;6.03;;;12.90;1.00;;;;;;5070091;28;20543;-55
2021/04/25 07:44:58;;;;;;;6.90;5.40;;;13.00;1.00;;;;;;5069377;28;20932;-56
2021/04/25 07:47:23;;;;;;;8.17;5.90;;;13.20;1.00;;;;;;5071110;28;20590;-56
2021/04/25 07:49:49;;;;;;;6.93;5.00;;;13.20;1.00;;;;;;5071295;28;20618;-56
2021/04/25 07:52:14;;;;;;;7.80;4.80;;;13.10;1.00;;;;;;5068680;28;20195;-55
2021/04/25 07:54:40;;;;;;;7.53;5.10;;;13.20;1.00;;;;;;5069255;28;20191;-57
2021/04/25 07:57:06;;;;;;;8.13;5.73;;;13.60;1.00;;;;;;5070030;28;20620;-55
2021/04/25 07:59:31;;;;;;;7.80;5.40;;;13.60;1.00;;;;;;5069147;28;20183;-55
2021/04/25 08:01:58;;;;;;;8.00;5.00;;;13.80;1.00;;;;;;5070109;28;20769;-56
2021/04/25 08:04:23;;;;;;;8.87;6.63;;;14.10;1.00;;;;;;5065066;28;20592;-57
2021/04/25 08:06:49;;;;;;;9.83;5.30;;;14.00;1.00;;;;;;5069227;28;20465;-57
2021/04/25 08:09:14;;;;;;;10.33;5.23;;;14.00;1.00;;;;;;5070438;28;20274;-56
2021/04/25 08:11:40;;;;;;;6.63;4.77;;;14.10;1.00;;;;;;5071101;28;20179;-54
2021/04/25 08:14:06;;;;;;;9.17;5.80;;;14.30;1.00;;;;;;5070047;28;20248;-57
2021/04/25 08:16:32;;;;;;;13.87;5.63;;;14.60;1.00;;;;;;5068276;28;20207;-58
2021/04/25 08:18:57;;;;;;;6.00;5.13;;;14.70;1.00;;;;;;5069466;28;20221;-55
2021/04/25 08:21:26;;;;;;;5.97;4.77;;;14.60;1.00;;;;;;5069197;28;20465;-58
2021/04/25 08:23:51;;;;;;;5.20;4.37;;;14.60;1.00;;;;;;5068572;28;20183;-59
2021/04/25 08:26:17;;;;;;;6.43;5.33;;;14.70;1.00;;;;;;5070219;28;20589;-57
2021/04/25 08:28:42;;;;;;;5.63;4.97;;;14.70;1.00;;;;;;5068599;28;20223;-56
2021/04/25 08:31:08;;;;;;;7.30;5.10;;;14.60;1.00;;;;;;5068837;28;20499;-57
2021/04/25 08:33:33;;;;;;;4.50;4.10;;;14.40;1.00;;;;;;5066881;28;20167;-57
2021/04/25 08:35:59;;;;;;;5.67;4.50;;;14.60;1.00;;;;;;5068866;28;20226;-56
2021/04/25 08:38:24;;;;;;;4.73;4.33;;;17.40;1.00;;;;;;5067594;28;20668;-56
2021/04/25 08:40:50;;;;;;;5.03;4.53;;;15.00;1.00;;;;;;5068521;28;20184;-57
2021/04/25 08:43:15;;;;;;;6.73;4.40;;;14.90;1.00;;;;;;5067834;28;20198;-57
2021/04/25 08:45:43;;;;;;;7.30;4.87;;;14.80;1.00;;;;;;5070259;28;20202;-55
2021/04/25 08:48:13;;;;;;;7.77;4.90;;;14.90;1.00;;;;;;5068773;28;20187;-57
2021/04/25 08:50:38;;;;;;;6.73;5.03;;;14.90;1.00;;;;;;5068833;28;20442;-56
2021/04/25 08:53:04;;;;;;;5.87;4.50;;;14.90;1.00;;;;;;5067763;28;20441;-57
2021/04/25 08:55:31;;;;;;;5.63;4.37;;;14.80;1.00;;;;;;5067558;28;20445;-56
2021/04/25 08:57:58;;;;;;;4.50;3.97;;;14.70;1.00;;;;;;5069684;28;20676;-58
2021/04/25 09:00:24;;;;;;;8.03;5.10;;;14.80;1.00;;;;;;5065709;28;20469;-57
2021/04/25 09:02:53;;;;;;;7.83;4.90;;;14.90;1.00;;;;;;5067096;28;20437;-57
2021/04/25 09:05:19;;;;;;;7.60;5.30;;;15.20;1.00;;;;;;5066872;28;21010;-57
2021/04/25 09:07:59;;;;;;;6.13;4.73;;;15.30;1.00;;;;;;5067489;28;20429;-56
2021/04/25 09:10:36;;;;;;;6.03;4.20;;;15.40;1.00;;;;;;5067986;28;20936;-56
2021/04/25 09:13:15;;;;;;;4.80;4.37;;;15.40;1.00;;;;;;5069370;28;20841;-56
2021/04/25 09:15:41;;;;;;;9.50;5.47;;;15.40;1.00;;;;;;5068372;28;20449;-57
2021/04/25 09:18:07;;;;;;;6.77;5.40;;;15.20;1.00;;;;;;5068191;28;20461;-56
2021/04/25 09:20:46;;;;;;;5.37;4.57;;;15.00;1.00;;;;;;5065160;28;20438;-58
2021/04/25 09:23:19;;;;;;;6.10;4.10;;;14.90;1.00;;;;;;5071158;28;20369;-58
2021/04/25 09:25:54;;;;;;;6.13;3.90;;;14.60;1.00;;;;;;5075506;28;20433;-56
2021/04/25 09:28:20;;;;;;;6.47;4.50;;;14.50;1.00;;;;;;5068554;28;20879;-57
2021/04/25 09:31:08;;;;;;;7.70;4.10;;;14.50;1.00;;;;;;5067000;28;20538;-57
2021/04/25 09:33:55;;;;;;;5.13;4.47;;;14.30;1.00;;;;;;5066966;28;20225;-57
2021/04/25 09:36:23;;;;;;;4.73;4.03;;;14.20;1.00;;;;;;5066513;28;20712;-56
2021/04/25 09:38:53;;;;;;;5.90;4.50;;;14.30;1.00;;;;;;5069505;28;20452;-59
2021/04/25 09:41:33;;;;;;;8.83;4.50;;;14.40;1.00;;;;;;5068584;28;20438;-57
2021/04/25 09:43:59;;;;;;;5.43;4.83;;;14.60;1.00;;;;;;5075594;28;20460;-57
2021/04/25 09:46:47;;;;;;;8.90;4.40;;;14.80;1.00;;;;;;5070206;28;20446;-58
2021/04/25 09:49:45;;;;;;;7.60;5.10;;;15.60;1.00;;;;;;5068383;28;20974;-60
2021/04/25 09:52:13;;;;;;;6.20;4.47;;;16.60;1.00;;;;;;5063357;28;20896;-55
2021/04/25 09:54:40;;;;;;;5.47;4.63;;;17.00;1.00;;;;;;5065689;28;20442;-58
2021/04/25 09:57:06;;;;;;;6.80;4.47;;;;;;;;;;5066585;28;20465;-57
2021/04/25 09:59:32;;;;;;;9.27;4.13;;;17.10;1.00;;;;;;5065564;28;20483;-56
2021/04/25 10:02:08;;;;;;;5.60;4.00;;;17.50;1.00;;;;;;5067168;28;20445;-60
2021/04/25 10:04:38;;;;;;;4.40;4.00;;;16.90;1.00;;;;;;5073212;28;20787;-59
2021/04/25 10:07:08;;;;;;;5.50;4.10;;;16.50;1.00;;;;;;5070819;28;20446;-60
2021/04/25 10:09:35;;;;;;;4.60;3.83;;;16.10;1.00;;;;;;5069879;28;20433;-59
2021/04/25 10:12:02;;;;;;;5.53;3.77;;;15.90;1.00;;;;;;5068315;28;20448;-58
2021/04/25 10:14:30;;;;;;;5.87;3.97;;;15.40;1.00;;;;;;5069811;28;20437;-59
2021/04/25 10:16:57;;;;;;;6.13;3.20;;;14.90;1.00;;;;;;5069349;28;20457;-57
2021/04/25 10:19:23;;;;;;;5.37;3.70;;;14.50;1.00;;;;;;5071929;28;20440;-64
2021/04/25 10:21:48;;;;;;;5.60;3.13;;;13.90;1.00;;;;;;5071068;28;20540;-63
2021/04/25 10:24:18;;;;;;;3.70;3.30;;;13.50;1.00;;;;;;5069786;28;20183;-60
2021/04/25 10:27:05;;;;;;;7.73;3.90;;;13.40;1.00;;;;;;5068647;28;20198;-58
2021/04/25 10:29:52;;;;;;;5.47;3.80;;;13.30;1.00;;;;;;5067330;28;20461;-58
2021/04/25 10:32:20;;;;;;;7.43;3.93;;;13.40;1.00;;;;;;5058089;28;20509;-59
2021/04/25 10:34:50;;;;;;;5.07;3.50;;;13.50;1.00;;;;;;5067060;28;20448;-59
2021/04/25 10:37:15;;;;;;;10.60;4.63;;;13.80;1.00;;;;;;5064018;28;21633;-58
2021/04/25 10:39:46;;;;;;;4.93;3.90;;;13.90;1.00;;;;;;5066752;28;20437;-60
2021/04/25 10:42:21;;;;;;;4.50;3.60;;;13.90;1.00;;;;;;5067025;28;20297;-60
2021/04/25 10:45:06;;;;;;;6.30;4.63;;;14.60;1.00;;;;;;5067276;28;20956;-59
2021/04/25 10:47:39;;;;;;;5.03;3.60;;;14.60;1.00;;;;;;5066081;28;20477;-58
2021/04/25 10:50:17;;;;;;;6.67;4.03;;;15.20;1.00;;;;;;5065976;28;20595;-62
2021/04/25 10:52:45;;;;;;;5.30;3.97;;;15.70;1.00;;;;;;5069646;28;20451;-62
2021/04/25 10:55:11;;;;;;;5.47;3.70;;;15.80;1.00;;;;;;5067333;28;20449;-62
2021/04/25 10:57:56;;;;;;;4.53;3.83;;;15.50;1.00;;;;;;5066829;28;20464;-63
2021/04/25 11:00:34;;;;;;;4.47;3.63;;;15.60;1.00;;;;;;5066800;28;20471;-63
2021/04/25 11:03:05;;;;;;;7.40;3.90;;;16.00;1.00;;;;;;5067049;28;20441;-63
2021/04/25 11:05:53;;;;;;;5.70;3.80;;;15.90;1.00;;;;;;5066508;28;20441;-62
2021/04/25 11:08:30;;;;;;;4.10;3.20;;;15.60;1.00;;;;;;5066303;28;20449;-62
2021/04/25 11:11:05;;;;;;;4.77;3.27;;;15.50;1.00;;;;;;5066433;28;20630;-62
2021/04/25 11:13:47;;;;;;;4.67;3.73;;;15.40;1.00;;;;;;5066403;28;20445;-61
2021/04/25 11:16:13;;;;;;;3.20;2.90;;;15.10;1.00;;;;;;5066584;28;20445;-61
2021/04/25 11:19:07;;;;;;;6.67;3.17;;;14.80;1.00;;;;;;5066864;28;20556;-61
2021/04/25 11:21:36;;;;;;;6.67;3.27;;;14.80;1.00;;;;;;5065629;28;20184;-61
2021/04/25 11:24:02;;;;;;;6.07;3.30;;;15.00;1.00;;;;;;5067353;28;20476;-62
2021/04/25 11:26:37;;;;;;;6.47;3.13;;;15.10;1.00;;;;;;5071251;28;20437;-62
2021/04/25 11:29:14;;;;;;;5.70;3.17;;;15.10;1.00;;;;;;5071981;28;20211;-61
2021/04/25 11:34:26;;;;;;;6.70;3.47;;;14.90;1.00;;;;;;5072484;28;20436;-61
2021/04/25 11:37:02;;;;;;;4.47;3.07;;;14.80;1.00;;;;;;5068665;28;20572;-60
2021/04/25 11:39:40;;;;;;;3.83;3.10;;;15.00;1.00;;;;;;5071511;28;20447;-62
2021/04/25 11:42:07;;;;;;;4.20;3.40;;;15.10;1.00;;;;;;5070992;28;20456;-62
2021/04/25 11:44:35;;;;;;;6.03;3.43;;;15.50;1.00;;;;;;5070512;28;20968;-62
2021/04/25 11:47:09;;;;;;;4.03;3.40;;;15.70;1.00;;;;;;5067573;28;20450;-61
2021/04/25 11:49:47;;;;;;;5.13;3.50;;;16.40;1.00;;;;;;5069002;28;20449;-61
2021/04/25 11:52:12;;;;;;;5.83;3.70;;;16.50;1.00;;;;;;5069728;28;20433;-62
2021/04/25 11:54:39;;;;;;;4.20;3.77;;;16.60;1.00;;;;;;5069145;28;20844;-62
2021/04/25 11:57:12;;;;;;;5.43;3.73;;;16.40;1.00;;;;;;5068292;28;20207;-62
2021/04/25 11:59:52;;;;;;;6.03;3.53;;;15.30;1.00;;;;;;5070944;28;20438;-62
2021/04/25 12:02:18;;;;;;;6.63;4.23;;;15.20;1.00;;;;;;5068986;28;20934;-62
2021/04/25 12:04:51;;;;;;;7.73;3.77;;;15.20;1.00;;;;;;5069558;28;20445;-62
2021/04/25 12:07:35;;;;;;;6.17;3.63;;;15.20;1.00;;;;;;5068496;28;20183;-62
2021/04/25 12:10:01;;;;;;;5.43;3.40;;;15.00;1.00;;;;;;5069378;28;20464;-62
2021/04/25 12:12:27;;;;;;;5.70;3.77;;;14.60;1.00;;;;;;5069641;28;20477;-62
2021/04/25 12:15:00;;;;;;;5.03;3.40;;;14.90;1.00;;;;;;5068775;28;20530;-62
2021/04/25 12:17:26;;;;;;;4.63;3.70;;;14.80;1.00;;;;;;5069596;28;20187;-62
2021/04/25 12:19:51;;;;;;;4.93;3.47;;;14.70;1.00;;;;;;5073674;28;20430;-67
2021/04/25 12:22:17;;;;;;;3.93;3.30;;;14.70;1.00;;;;;;5080804;28;20175;-67
2021/04/25 12:24:43;;;;;;;5.13;3.87;;;15.00;1.00;;;;;;5083394;28;20184;-67
2021/04/25 12:27:08;;;;;;;4.13;3.13;;;15.30;1.00;;;;;;5083248;28;20175;-67
2021/04/25 12:29:38;;;;;;;3.40;2.97;;;15.40;1.00;;;;;;5081358;28;20242;-66
2021/04/25 12:32:05;;;;;;;3.50;3.20;;;15.10;1.00;;;;;;5078213;28;20183;-66
2021/04/25 12:34:32;;;;;;;5.97;3.60;;;15.10;1.00;;;;;;5075187;28;20456;-66
2021/04/25 12:37:00;;;;;;;4.07;3.07;;;14.40;1.00;;;;;;5074549;28;20527;-67
2021/04/25 12:39:40;;;;;;;5.03;3.50;;;14.10;1.00;;;;;;5075183;28;20446;-66
2021/04/25 12:42:06;;;;;;;8.00;4.50;;;13.80;1.00;;;;;;5071249;28;20457;-66
2021/04/25 12:44:36;;;;;;;5.20;3.53;;;13.80;1.00;;;;;;5073954;28;20905;-66
2021/04/25 12:47:03;;;;;;;5.20;3.77;;;13.90;1.00;;;;;;5077349;28;20456;-66
2021/04/25 12:49:37;;;;;;;7.40;3.70;;;13.80;1.00;;;;;;5076931;28;20587;-66
2021/04/25 12:52:04;;;;;;;4.63;3.37;;;13.60;1.00;;;;;;5079941;28;20442;-66
2021/04/25 12:54:38;;;;;;;5.20;3.50;;;13.60;1.00;;;;;;5083136;28;20441;-66
2021/04/25 12:57:04;;;;;;;5.70;3.40;;;13.90;1.00;;;;;;5080073;28;20484;-66
2021/04/25 12:59:34;;;;;;;3.80;3.40;;;14.10;1.00;;;;;;5072255;28;20465;-66
2021/04/25 13:02:00;;;;;;;3.90;3.40;;;14.30;1.00;;;;;;5076192;28;20437;-66
2021/04/25 13:04:29;;;;;;;4.43;3.00;;;14.20;1.00;;;;;;5082333;28;20433;-66